Time;durP1;ratioP1;P1;durP2;ratioP2;P2;SDS_P1;SDS_P2;PMS_P1;PMS_P2;Temp;Humidity;BMP_temperature;BMP_pressure;BME280_temperature;BME280_humidity;BME280_pressure;Samples;Min_cycle;Max_cycle;Signal;HPM_P1;HPM_P2
2023/01/02 00:02:29;;;;;;;15.75;6.10;;;14.10;99.30;;;;;;5074662;28;20037;-52
2023/01/02 00:05:15;;;;;;;14.35;6.22;;;14.10;99.20;;;;;;5071485;28;20020;-53
2023/01/02 00:08:01;;;;;;;13.10;6.00;;;14.10;99.30;;;;;;5058545;28;20519;-50
2023/01/02 00:10:47;;;;;;;8.85;5.93;;;14.10;99.30;;;;;;5076470;28;20024;-47
2023/01/02 00:13:36;;;;;;;11.15;6.13;;;14.10;99.30;;;;;;5075567;28;20080;-47
2023/01/02 00:16:23;;;;;;;12.43;6.63;;;14.10;99.30;;;;;;5076021;28;20059;-48
2023/01/02 00:19:12;;;;;;;13.90;5.85;;;14.10;99.30;;;;;;5076938;28;20032;-51
2023/01/02 00:21:58;;;;;;;14.43;6.63;;;14.10;99.30;;;;;;5074278;28;20032;-51
2023/01/02 00:24:43;;;;;;;12.95;6.47;;;14.10;99.20;;;;;;5074364;28;20029;-49
2023/01/02 00:27:29;;;;;;;14.25;6.40;;;14.10;99.30;;;;;;5073400;28;20056;-48
2023/01/02 00:30:16;;;;;;;12.13;6.05;;;14.10;99.30;;;;;;5075476;28;20395;-48
2023/01/02 00:33:02;;;;;;;8.93;5.78;;;14.10;99.30;;;;;;5073306;28;20484;-55
2023/01/02 00:35:48;;;;;;;9.00;6.25;;;14.20;99.30;;;;;;5071800;28;20032;-56
2023/01/02 00:38:34;;;;;;;10.35;6.30;;;14.20;99.20;;;;;;5072022;28;20029;-53
2023/01/02 00:41:20;;;;;;;11.02;6.18;;;14.10;99.30;;;;;;5072806;28;20077;-51
2023/01/02 00:44:06;;;;;;;13.48;6.07;;;14.10;99.30;;;;;;5073159;28;20021;-54
2023/01/02 00:46:52;;;;;;;11.05;5.75;;;14.30;99.10;;;;;;5073146;28;20047;-57
2023/01/02 00:49:38;;;;;;;10.88;6.30;;;14.20;99.20;;;;;;5072849;28;20396;-52
2023/01/02 00:52:24;;;;;;;11.65;6.00;;;14.20;99.10;;;;;;5071422;28;20108;-53
2023/01/02 00:55:10;;;;;;;7.82;5.65;;;14.30;99.10;;;;;;5072397;28;20536;-54
2023/01/02 00:57:56;;;;;;;7.97;5.93;;;14.30;99.10;;;;;;5072148;28;20415;-55
2023/01/02 01:00:42;;;;;;;9.38;5.50;;;14.30;99.10;;;;;;5072422;28;20519;-55
2023/01/02 01:03:28;;;;;;;10.38;6.20;;;14.30;99.10;;;;;;5072016;28;20412;-57
2023/01/02 01:06:14;;;;;;;9.02;6.13;;;14.30;99.00;;;;;;5072175;28;20082;-56
2023/01/02 01:09:01;;;;;;;10.18;6.32;;;14.30;99.20;;;;;;5072004;28;20396;-56
2023/01/02 01:11:46;;;;;;;12.32;5.88;;;14.30;99.10;;;;;;5071930;28;20036;-54
2023/01/02 01:14:33;;;;;;;9.95;6.32;;;14.30;99.10;;;;;;5072688;28;20085;-56
2023/01/02 01:17:19;;;;;;;8.93;5.68;;;14.40;99.10;;;;;;5076004;28;20025;-59
2023/01/02 01:20:06;;;;;;;10.65;6.28;;;14.40;99.20;;;;;;5076391;28;20108;-56
2023/01/02 01:22:51;;;;;;;10.23;6.35;;;14.30;99.10;;;;;;5074602;28;20022;-56
2023/01/02 01:25:37;;;;;;;8.73;6.47;;;14.30;99.10;;;;;;5075863;28;20565;-57
2023/01/02 01:28:23;;;;;;;10.10;6.05;;;14.30;99.10;;;;;;5075301;28;20041;-55
2023/01/02 01:31:11;;;;;;;10.57;6.93;;;14.40;99.00;;;;;;5074027;28;20154;-55
2023/01/02 01:33:57;;;;;;;9.82;5.80;;;14.50;98.90;;;;;;5075225;28;20468;-57
2023/01/02 01:36:43;;;;;;;10.43;6.10;;;14.50;98.80;;;;;;5074481;28;20454;-57
2023/01/02 01:39:29;;;;;;;11.13;6.05;;;14.50;98.80;;;;;;5075958;28;20039;-50
2023/01/02 01:42:15;;;;;;;9.63;5.88;;;14.50;98.70;;;;;;5075765;28;20035;-54
2023/01/02 01:45:02;;;;;;;8.95;5.72;;;14.60;98.50;;;;;;5074925;28;20503;-55
2023/01/02 01:47:54;;;;;;;9.55;5.88;;;14.50;98.60;;;;;;5073790;28;20020;-52
2023/01/02 01:50:41;;;;;;;10.75;5.55;;;14.60;98.50;;;;;;5074130;28;20051;-52
2023/01/02 01:53:27;;;;;;;8.52;5.88;;;14.60;98.50;;;;;;5075505;28;20028;-56
2023/01/02 01:56:13;;;;;;;10.60;5.70;;;14.60;98.40;;;;;;5074099;28;20029;-55
2023/01/02 01:58:59;;;;;;;8.13;5.88;;;14.60;98.30;;;;;;5075186;28;20021;-52
2023/01/02 02:01:47;;;;;;;9.45;5.63;;;14.60;98.30;;;;;;5074224;28;20028;-52
2023/01/02 02:04:33;;;;;;;10.57;5.60;;;14.60;98.20;;;;;;5073804;28;20214;-51
2023/01/02 02:07:19;;;;;;;7.00;5.88;;;14.70;98.20;;;;;;5073338;28;20021;-54
2023/01/02 02:10:07;;;;;;;8.32;6.05;;;14.60;98.20;;;;;;5075258;28;20040;-57
2023/01/02 02:12:53;;;;;;;8.82;6.13;;;14.60;98.30;;;;;;5075152;28;20107;-54
2023/01/02 02:16:14;;;;;;;7.90;5.32;;;14.60;98.40;;;;;;5073558;28;20536;-55
2023/01/02 02:19:13;;;;;;;9.10;5.80;;;14.60;98.40;;;;;;5075507;28;20029;-55
2023/01/02 02:22:20;;;;;;;8.18;5.47;;;14.60;98.30;;;;;;5074285;28;20507;-51
2023/01/02 02:25:36;;;;;;;8.90;6.50;;;14.60;98.20;;;;;;5075033;28;20120;-54
2023/01/02 02:28:44;;;;;;;9.85;6.05;;;14.80;98.00;;;;;;5074445;28;20031;-52
2023/01/02 02:31:39;;;;;;;7.70;6.05;;;14.80;97.80;;;;;;5072728;28;20084;-52
2023/01/02 02:34:37;;;;;;;;;;;14.70;97.90;;;;;;5075021;28;20025;-55
2023/01/02 02:37:35;;;;;;;8.73;5.53;;;14.80;97.50;;;;;;5073886;28;19911;-55
2023/01/02 02:40:58;;;;;;;8.07;5.28;;;14.90;97.50;;;;;;5073657;28;20025;-56
2023/01/02 02:44:18;;;;;;;8.40;5.63;;;15.00;97.10;;;;;;5071993;28;20024;-52
2023/01/02 02:47:12;;;;;;;8.98;5.78;;;15.10;96.90;;;;;;5073649;28;20027;-53
2023/01/02 02:50:11;;;;;;;9.52;5.75;;;15.10;96.90;;;;;;5073560;28;20052;-53
2023/01/02 02:53:12;;;;;;;8.80;5.20;;;15.10;96.60;;;;;;5072507;28;20020;-54
2023/01/02 02:56:01;;;;;;;7.15;5.30;;;15.10;96.60;;;;;;5073570;28;20025;-56
2023/01/02 02:58:47;;;;;;;7.53;5.47;;;15.20;96.50;;;;;;5073343;28;20050;-56
2023/01/02 03:01:34;;;;;;;7.43;5.63;;;15.20;96.20;;;;;;5073230;28;20031;-57
2023/01/02 03:04:21;;;;;;;8.98;6.03;;;15.30;96.20;;;;;;5073115;28;20021;-55
2023/01/02 03:07:33;;;;;;;8.93;5.65;;;15.30;96.10;;;;;;5072958;28;20029;-55
2023/01/02 03:10:29;;;;;;;8.85;5.32;;;15.40;96.00;;;;;;5071658;28;20100;-57
2023/01/02 03:13:30;;;;;;;7.20;5.25;;;15.30;95.90;;;;;;5073537;28;20126;-55
2023/01/02 03:16:33;;;;;;;6.40;5.15;;;15.40;95.90;;;;;;5073321;28;20016;-54
2023/01/02 03:19:44;;;;;;;6.88;4.80;;;15.30;95.90;;;;;;5073732;28;20025;-55
2023/01/02 03:22:34;;;;;;;6.03;4.90;;;15.40;95.90;;;;;;5071513;28;20067;-52
2023/01/02 03:25:21;;;;;;;9.48;5.65;;;15.30;95.80;;;;;;5073534;28;20106;-52
2023/01/02 03:28:10;;;;;;;8.07;5.32;;;15.30;95.70;;;;;;5073147;28;20047;-52
2023/01/02 03:31:00;;;;;;;8.25;4.75;;;15.40;95.60;;;;;;5073130;28;20029;-54
2023/01/02 03:33:54;;;;;;;6.72;4.85;;;15.40;95.70;;;;;;5072663;28;20040;-55
2023/01/02 03:36:44;;;;;;;8.98;5.35;;;15.40;95.60;;;;;;5072490;28;20377;-56
2023/01/02 03:39:35;;;;;;;7.57;5.32;;;15.40;95.60;;;;;;5072001;28;20496;-55
2023/01/02 03:42:30;;;;;;;8.15;4.90;;;15.30;95.50;;;;;;5072032;28;20025;-54
2023/01/02 03:45:22;;;;;;;7.43;5.20;;;15.40;95.40;;;;;;5072796;28;20055;-53
2023/01/02 03:48:34;;;;;;;6.13;4.65;;;15.40;95.40;;;;;;5073261;28;20105;-52
2023/01/02 03:51:20;;;;;;;8.88;5.50;;;15.40;95.40;;;;;;5072496;28;20017;-53
2023/01/02 03:54:07;;;;;;;7.03;4.70;;;15.40;95.50;;;;;;5072996;28;20078;-49
2023/01/02 03:57:11;;;;;;;6.70;4.82;;;15.30;95.30;;;;;;5072857;28;20565;-56
2023/01/02 04:00:11;;;;;;;6.78;4.90;;;15.40;95.30;;;;;;5072177;28;20067;-55
2023/01/02 04:03:10;;;;;;;9.43;5.22;;;15.40;95.30;;;;;;5072184;28;20407;-57
2023/01/02 04:06:02;;;;;;;7.70;5.20;;;15.40;95.30;;;;;;5071945;28;20400;-55
2023/01/02 04:09:20;;;;;;;8.00;5.10;;;15.50;95.40;;;;;;5070792;28;20404;-56
2023/01/02 04:12:10;;;;;;;7.75;5.30;;;15.40;95.70;;;;;;5072078;28;20441;-57
2023/01/02 04:15:04;;;;;;;8.02;5.50;;;15.40;95.40;;;;;;5071947;28;20036;-53
2023/01/02 04:17:55;;;;;;;6.15;4.80;;;15.40;95.30;;;;;;5071881;28;20070;-55
2023/01/02 04:20:46;;;;;;;6.63;5.15;;;15.40;95.30;;;;;;5072675;28;20403;-54
2023/01/02 04:23:39;;;;;;;6.82;4.80;;;15.40;95.10;;;;;;5073004;28;20025;-54
2023/01/02 04:26:37;;;;;;;7.25;4.95;;;15.40;95.00;;;;;;5072381;28;20017;-57
2023/01/02 04:29:23;;;;;;;7.78;4.90;;;15.50;94.90;;;;;;5072437;28;20408;-56
2023/01/02 04:32:19;;;;;;;7.05;4.60;;;15.50;94.80;;;;;;5072507;28;20436;-55
2023/01/02 04:35:08;;;;;;;7.15;4.88;;;15.50;94.70;;;;;;5071864;28;20025;-53
2023/01/02 04:37:54;;;;;;;7.47;4.55;;;15.50;94.90;;;;;;5071946;28;20029;-54
2023/01/02 04:40:40;;;;;;;8.00;4.95;;;15.50;94.60;;;;;;5072125;28;20055;-55
2023/01/02 04:43:26;;;;;;;8.60;4.75;;;15.50;94.70;;;;;;5072073;28;20025;-54
2023/01/02 04:46:12;;;;;;;7.57;4.78;;;15.50;94.50;;;;;;5072243;28;20070;-49
2023/01/02 04:48:58;;;;;;;7.13;4.53;;;15.50;94.40;;;;;;5072069;28;20348;-54
2023/01/02 04:51:44;;;;;;;7.10;4.40;;;15.50;94.50;;;;;;5074868;28;20029;-53
2023/01/02 04:54:29;;;;;;;8.80;4.75;;;15.50;94.50;;;;;;5076454;28;20031;-52
2023/01/02 04:57:15;;;;;;;6.45;4.13;;;15.50;94.50;;;;;;5076389;28;20032;-57
2023/01/02 05:00:02;;;;;;;7.60;5.00;;;15.50;94.50;;;;;;5075988;28;20041;-54
2023/01/02 05:02:48;;;;;;;5.38;4.35;;;15.40;94.60;;;;;;5076095;28;20032;-52
2023/01/02 05:05:34;;;;;;;6.60;4.43;;;15.40;94.60;;;;;;5075979;28;20074;-56
2023/01/02 05:08:20;;;;;;;6.20;4.72;;;15.40;94.60;;;;;;5075278;28;20404;-54
2023/01/02 05:11:13;;;;;;;7.18;4.80;;;15.40;94.50;;;;;;5075244;28;20039;-56
2023/01/02 05:13:59;;;;;;;8.35;5.32;;;15.40;94.50;;;;;;5075820;28;20538;-56
2023/01/02 05:16:45;;;;;;;9.55;4.82;;;15.30;94.60;;;;;;5073604;28;20060;-57
2023/01/02 05:19:31;;;;;;;8.25;4.45;;;15.30;94.60;;;;;;5074646;28;20024;-54
2023/01/02 05:25:22;;;;;;;6.82;4.97;;;15.30;94.70;;;;;;5075670;28;20016;-57
2023/01/02 05:28:08;;;;;;;5.53;4.60;;;15.30;94.70;;;;;;5075363;28;20060;-56
2023/01/02 05:30:57;;;;;;;8.20;4.80;;;15.20;94.80;;;;;;5074826;28;20033;-54
2023/01/02 05:33:43;;;;;;;8.93;4.97;;;15.20;94.70;;;;;;5075229;28;20040;-54
2023/01/02 05:36:29;;;;;;;7.40;4.97;;;15.10;94.90;;;;;;5074151;28;20036;-53
2023/01/02 05:39:15;;;;;;;10.88;6.03;;;15.10;94.90;;;;;;5074778;28;20408;-53
2023/01/02 05:42:01;;;;;;;10.48;4.93;;;15.20;95.00;;;;;;5074660;28;20055;-54
2023/01/02 05:44:48;;;;;;;10.77;4.95;;;15.10;95.00;;;;;;5075300;28;20021;-54
2023/01/02 05:47:34;;;;;;;12.82;5.00;;;15.10;95.10;;;;;;5074353;28;20407;-55
2023/01/02 05:50:20;;;;;;;5.82;4.63;;;15.10;95.00;;;;;;5075010;28;20082;-54
2023/01/02 05:53:05;;;;;;;6.50;4.90;;;15.00;95.00;;;;;;5073136;28;20504;-57
2023/01/02 05:55:51;;;;;;;6.68;4.60;;;15.00;95.10;;;;;;5073342;28;20031;-57
2023/01/02 05:58:39;;;;;;;6.15;4.70;;;15.00;95.00;;;;;;5075041;28;20025;-56
2023/01/02 06:01:28;;;;;;;10.75;4.72;;;15.00;94.90;;;;;;5074919;28;20029;-53
2023/01/02 06:04:13;;;;;;;8.00;5.25;;;15.00;94.90;;;;;;5074207;28;20028;-56
2023/01/02 06:06:59;;;;;;;7.90;4.90;;;15.00;94.90;;;;;;5074522;28;20021;-53
2023/01/02 06:09:46;;;;;;;8.35;5.03;;;15.00;94.80;;;;;;5074545;28;20495;-57
2023/01/02 06:12:32;;;;;;;5.50;4.13;;;15.10;94.70;;;;;;5074431;28;20064;-54
2023/01/02 06:15:18;;;;;;;6.13;4.30;;;15.10;94.50;;;;;;5073643;28;20039;-54
2023/01/02 06:18:04;;;;;;;9.02;5.05;;;15.20;94.50;;;;;;5074447;28;20054;-55
2023/01/02 06:20:50;;;;;;;6.97;5.20;;;15.20;94.60;;;;;;5073895;28;20503;-58
2023/01/02 06:23:37;;;;;;;8.02;4.78;;;15.20;94.40;;;;;;5075102;28;20031;-57
2023/01/02 06:26:25;;;;;;;9.73;5.55;;;15.30;94.20;;;;;;5074234;28;20096;-52
2023/01/02 06:29:11;;;;;;;7.30;4.85;;;15.20;94.30;;;;;;5074328;28;20039;-54
2023/01/02 06:31:57;;;;;;;11.05;5.00;;;15.20;94.20;;;;;;5073771;28;20029;-57
2023/01/02 06:34:43;;;;;;;6.90;4.78;;;15.30;94.30;;;;;;5074188;28;20029;-52
2023/01/02 06:37:29;;;;;;;6.43;4.88;;;15.30;94.20;;;;;;5073485;28;20082;-53
2023/01/02 06:40:15;;;;;;;9.05;5.40;;;15.30;94.10;;;;;;5074164;28;20075;-54
2023/01/02 06:43:01;;;;;;;10.77;7.40;;;15.20;94.10;;;;;;5074066;28;20064;-55
2023/01/02 06:45:48;;;;;;;7.07;4.97;;;15.20;94.10;;;;;;5074045;28;20058;-55
2023/01/02 06:48:34;;;;;;;7.15;4.97;;;15.20;94.40;;;;;;5073291;28;20057;-56
2023/01/02 06:51:22;;;;;;;7.43;4.50;;;15.20;94.10;;;;;;5073508;28;20032;-58
2023/01/02 06:54:08;;;;;;;9.10;4.55;;;15.20;94.40;;;;;;5073286;28;20028;-58
2023/01/02 06:56:53;;;;;;;8.88;4.85;;;15.30;94.20;;;;;;5073958;28;20048;-53
2023/01/02 06:59:40;;;;;;;6.75;5.03;;;15.20;94.30;;;;;;5073985;28;20500;-55
2023/01/02 07:02:25;;;;;;;6.97;4.80;;;15.20;94.40;;;;;;5073762;28;20458;-56
2023/01/02 07:05:12;;;;;;;6.03;4.22;;;15.10;94.40;;;;;;5073638;28;20107;-57
2023/01/02 07:07:57;;;;;;;10.82;5.40;;;15.10;94.40;;;;;;5073494;28;20048;-55
2023/01/02 07:10:43;;;;;;;7.57;4.60;;;15.10;94.50;;;;;;5072760;28;20117;-54
2023/01/02 07:13:29;;;;;;;8.73;5.30;;;15.00;94.60;;;;;;5072760;28;20029;-57
2023/01/02 07:16:17;;;;;;;7.05;4.20;;;14.90;94.60;;;;;;5072449;28;20025;-56
2023/01/02 07:19:03;;;;;;;6.82;4.85;;;15.00;94.60;;;;;;5072559;28;20032;-56
2023/01/02 07:21:49;;;;;;;6.30;4.38;;;15.00;94.50;;;;;;5071199;28;20020;-53
2023/01/02 07:24:35;;;;;;;9.45;6.22;;;14.90;94.60;;;;;;5072934;28;20028;-54
2023/01/02 07:27:21;;;;;;;8.52;6.07;;;14.90;94.70;;;;;;5072724;28;20025;-56
2023/01/02 07:30:07;;;;;;;6.50;4.25;;;14.90;94.70;;;;;;5071827;28;20496;-51
2023/01/02 07:32:53;;;;;;;7.57;4.85;;;14.90;94.80;;;;;;5072861;28;20032;-57
2023/01/02 07:35:40;;;;;;;7.55;4.82;;;14.90;94.60;;;;;;5073065;28;20060;-57
2023/01/02 07:38:26;;;;;;;7.60;4.43;;;14.90;94.70;;;;;;5070757;28;20028;-51
2023/01/02 07:41:14;;;;;;;7.03;5.25;;;14.80;94.70;;;;;;5072147;28;20477;-53
2023/01/02 07:44:00;;;;;;;10.13;4.68;;;14.80;94.80;;;;;;5070938;28;20058;-56
2023/01/02 07:46:46;;;;;;;8.57;4.72;;;14.90;94.60;;;;;;5072517;28;20020;-52
2023/01/02 07:49:32;;;;;;;7.30;4.63;;;14.90;94.50;;;;;;5073020;28;20564;-58
2023/01/02 07:52:18;;;;;;;8.73;4.15;;;14.90;94.50;;;;;;5072613;28;20500;-54
2023/01/02 07:55:04;;;;;;;7.80;4.70;;;14.90;94.50;;;;;;5072063;28;20266;-57
2023/01/02 07:57:50;;;;;;;8.02;4.80;;;14.80;94.60;;;;;;5072312;28;20021;-55
2023/01/02 08:00:36;;;;;;;8.23;4.65;;;14.90;94.60;;;;;;5072296;28;20107;-54
2023/01/02 08:03:22;;;;;;;6.68;4.47;;;14.80;94.60;;;;;;5072446;28;20024;-52
2023/01/02 08:06:10;;;;;;;5.55;3.97;;;14.90;94.40;;;;;;5072221;28;20425;-51
2023/01/02 08:08:56;;;;;;;8.00;4.53;;;14.90;94.50;;;;;;5070735;28;20021;-57
2023/01/02 08:11:42;;;;;;;10.82;4.72;;;14.90;94.40;;;;;;5071534;28;20457;-58
2023/01/02 08:14:28;;;;;;;13.93;4.65;;;14.90;94.40;;;;;;5072260;28;20151;-53
2023/01/02 08:17:14;;;;;;;8.32;5.00;;;14.90;94.40;;;;;;5071420;28;20029;-58
2023/01/02 08:20:00;;;;;;;7.55;4.70;;;15.00;94.30;;;;;;5070456;28;20058;-54
2023/01/02 08:22:46;;;;;;;6.95;4.40;;;15.00;94.20;;;;;;5071431;28;20028;-56
2023/01/02 08:25:32;;;;;;;8.48;3.97;;;15.00;94.20;;;;;;5071346;28;20074;-55
2023/01/02 08:28:18;;;;;;;9.32;4.35;;;15.00;94.10;;;;;;5071865;28;20183;-53
2023/01/02 08:31:12;;;;;;;9.90;4.80;;;15.00;94.00;;;;;;5072556;28;20557;-55
2023/01/02 08:33:58;;;;;;;5.10;3.80;;;15.00;94.10;;;;;;5071647;28;20117;-55
2023/01/02 08:36:44;;;;;;;7.43;4.50;;;15.00;94.10;;;;;;5071400;28;20032;-54
2023/01/02 08:39:30;;;;;;;6.00;4.20;;;15.10;94.00;;;;;;5071492;28;20039;-53
2023/01/02 08:42:16;;;;;;;9.40;4.63;;;15.20;93.90;;;;;;5071983;28;20056;-54
2023/01/02 08:45:02;;;;;;;8.90;4.40;;;15.10;93.80;;;;;;5071478;28;20595;-55
2023/01/02 08:47:48;;;;;;;7.22;4.18;;;15.10;93.90;;;;;;5071618;28;20025;-57
2023/01/02 08:50:34;;;;;;;7.60;4.10;;;15.10;94.00;;;;;;5071775;28;20036;-55
2023/01/02 08:53:20;;;;;;;5.68;4.25;;;15.10;94.00;;;;;;5071853;28;20020;-54
2023/01/02 08:56:21;;;;;;;9.75;4.45;;;15.10;93.90;;;;;;5071373;28;20439;-55
2023/01/02 08:59:09;;;;;;;8.32;4.78;;;15.10;93.90;;;;;;5070083;28;20069;-57
2023/01/02 09:01:55;;;;;;;6.18;4.40;;;15.10;93.90;;;;;;5071251;28;20104;-56
2023/01/02 09:04:41;;;;;;;7.57;4.30;;;15.20;93.80;;;;;;5071816;28;20036;-53
2023/01/02 09:07:27;;;;;;;7.22;4.07;;;15.20;93.80;;;;;;5071497;28;20021;-52
2023/01/02 09:10:13;;;;;;;7.82;4.40;;;15.20;94.00;;;;;;5071843;28;20477;-55
2023/01/02 09:12:59;;;;;;;8.38;4.35;;;15.20;93.90;;;;;;5072302;28;20178;-53
2023/01/02 09:15:45;;;;;;;7.35;4.35;;;15.20;93.80;;;;;;5070560;28;20020;-56
2023/01/02 09:18:31;;;;;;;8.98;4.50;;;15.20;93.80;;;;;;5071692;28;20037;-57
2023/01/02 09:21:17;;;;;;;7.20;4.10;;;15.30;93.70;;;;;;5071962;28;20056;-56
2023/01/02 09:24:04;;;;;;;7.45;4.10;;;15.30;93.90;;;;;;5071466;28;20108;-54
2023/01/02 09:26:50;;;;;;;6.82;4.18;;;15.40;93.60;;;;;;5070483;28;20020;-53
2023/01/02 09:29:36;;;;;;;5.68;4.40;;;15.50;93.40;;;;;;5069818;28;20120;-52
2023/01/02 09:32:22;;;;;;;5.97;4.20;;;15.50;93.40;;;;;;5071878;28;20032;-54
2023/01/02 09:35:08;;;;;;;7.93;4.40;;;15.60;93.40;;;;;;5202140;22;20045;-48
2023/01/02 09:37:53;;;;;;;5.65;4.28;;;15.50;93.30;;;;;;5044826;28;20497;-51
2023/01/02 09:41:09;;;;;;;10.05;4.03;;;15.60;93.20;;;;;;5059664;28;20037;-52
2023/01/02 09:44:04;;;;;;;5.38;4.18;;;15.70;93.00;;;;;;5054526;28;20024;-50
2023/01/02 09:46:59;;;;;;;9.40;5.35;;;15.70;93.10;;;;;;5053331;28;20512;-51
2023/01/02 09:49:52;;;;;;;18.35;10.65;;;15.80;93.00;;;;;;5054564;28;20070;-50
2023/01/02 09:52:47;;;;;;;13.88;7.47;;;15.80;93.20;;;;;;5053986;28;20520;-45
2023/01/02 09:56:00;;;;;;;5.68;4.15;;;15.90;92.80;;;;;;5053330;28;20055;-49
2023/01/02 09:58:52;;;;;;;7.25;5.28;;;15.90;92.80;;;;;;5054096;28;20036;-56
2023/01/02 10:01:44;;;;;;;6.63;4.28;;;16.00;92.80;;;;;;5053016;28;20497;-58
2023/01/02 10:05:06;;;;;;;7.72;4.13;;;16.00;92.60;;;;;;5053245;28;20030;-59
2023/01/02 10:08:01;;;;;;;8.40;5.75;;;16.00;92.30;;;;;;5053210;28;20029;-53
2023/01/02 10:11:05;;;;;;;6.95;5.00;;;16.00;92.50;;;;;;5053097;28;20021;-55
2023/01/02 10:14:04;;;;;;;8.95;6.53;;;16.20;92.40;;;;;;5053077;28;20036;-58
2023/01/02 10:16:55;;;;;;;12.32;6.57;;;16.40;92.00;;;;;;5052553;28;20013;-55
2023/01/02 10:19:52;;;;;;;13.35;8.75;;;16.60;92.00;;;;;;5052801;28;20025;-59
2023/01/02 10:22:44;;;;;;;10.73;5.30;;;16.70;92.00;;;;;;5053125;28;20497;-58
2023/01/02 10:25:36;;;;;;;5.95;4.10;;;16.80;91.80;;;;;;5052750;28;20017;-53
2023/01/02 10:28:57;;;;;;;6.50;4.55;;;16.80;91.50;;;;;;5052576;28;20070;-56
2023/01/02 10:31:54;;;;;;;5.07;3.90;;;16.80;91.50;;;;;;5053134;28;20051;-58
2023/01/02 10:35:09;;;;;;;7.97;4.88;;;16.80;91.70;;;;;;5052657;28;20029;-55
2023/01/02 10:38:02;;;;;;;10.97;4.30;;;16.90;91.60;;;;;;5052296;28;20087;-56
2023/01/02 10:40:49;;;;;;;8.95;4.13;;;16.90;91.60;;;;;;5052599;28;20291;-57
2023/01/02 10:43:36;;;;;;;10.60;4.32;;;16.90;91.20;;;;;;5053087;28;20032;-59
2023/01/02 10:46:22;;;;;;;16.88;5.32;;;16.90;91.40;;;;;;5052156;28;20117;-57
2023/01/02 10:49:09;;;;;;;12.02;4.45;;;16.90;91.60;;;;;;5051514;28;20033;-58
2023/01/02 10:52:17;;;;;;;8.50;4.43;;;16.90;91.80;;;;;;5052413;28;20469;-57
2023/01/02 10:55:03;;;;;;;8.02;4.40;;;16.80;91.60;;;;;;5051401;28;20021;-47
2023/01/02 10:57:50;;;;;;;7.97;4.47;;;16.60;91.70;;;;;;5052618;28;20028;-46
2023/01/02 11:00:36;;;;;;;5.63;3.95;;;16.60;91.90;;;;;;5052784;28;20025;-48
2023/01/02 11:03:24;;;;;;;9.40;4.10;;;16.50;91.90;;;;;;5053002;28;20108;-47
2023/01/02 11:06:22;;;;;;;6.20;4.05;;;16.50;92.00;;;;;;5053478;28;20061;-53
2023/01/02 11:09:21;;;;;;;9.50;3.88;;;16.40;92.10;;;;;;5052589;28;20032;-46
2023/01/02 11:12:09;;;;;;;7.57;3.80;;;16.40;92.30;;;;;;5052700;28;20029;-52
2023/01/02 11:15:13;;;;;;;8.55;4.15;;;16.40;92.20;;;;;;5052860;28;20108;-56
2023/01/02 11:18:00;;;;;;;9.07;4.68;;;16.40;92.30;;;;;;5052322;28;20036;-47
2023/01/02 11:20:50;;;;;;;5.95;3.70;;;16.40;92.30;;;;;;5052389;28;20024;-53
2023/01/02 11:23:43;;;;;;;6.93;4.10;;;16.30;92.60;;;;;;5024611;28;20091;-57
2023/01/02 11:26:32;;;;;;;5.90;4.00;;;16.30;92.60;;;;;;5052089;28;20026;-51
2023/01/02 11:29:38;;;;;;;6.63;4.05;;;16.40;92.50;;;;;;5052085;28;20562;-48
2023/01/02 11:32:34;;;;;;;6.53;3.58;;;16.40;92.60;;;;;;5071035;28;20055;-46
2023/01/02 11:35:51;;;;;;;9.90;4.43;;;16.40;92.60;;;;;;5073147;28;20522;-50
2023/01/02 11:38:50;;;;;;;9.23;5.05;;;16.40;92.40;;;;;;5073393;28;20373;-57
2023/01/02 11:45:09;;;;;;;10.10;4.07;;;16.40;92.40;;;;;;5072578;28;20024;-52
2023/01/02 11:48:02;;;;;;;8.80;3.78;;;16.40;92.30;;;;;;5059168;28;20021;-55
2023/01/02 11:50:49;;;;;;;9.07;3.97;;;16.40;92.30;;;;;;5073177;28;20476;-53
2023/01/02 11:53:40;;;;;;;9.80;3.83;;;16.50;92.20;;;;;;5071512;28;20048;-52
2023/01/02 11:56:29;;;;;;;6.65;3.90;;;16.50;92.20;;;;;;5071520;28;20078;-50
2023/01/02 11:59:22;;;;;;;8.85;4.20;;;16.50;92.30;;;;;;5073354;28;20027;-45
2023/01/02 12:02:19;;;;;;;9.20;4.20;;;16.50;92.50;;;;;;5074172;28;20024;-53
2023/01/02 12:05:36;;;;;;;10.02;4.07;;;16.40;92.60;;;;;;5057351;28;20016;-45
2023/01/02 12:08:46;;;;;;;8.77;3.90;;;16.50;92.60;;;;;;5071662;28;20029;-51
2023/01/02 12:11:51;;;;;;;14.65;4.45;;;16.60;92.30;;;;;;5071837;28;20488;-53
2023/01/02 12:15:11;;;;;;;9.57;4.05;;;16.70;92.10;;;;;;5070961;28;20032;-47
2023/01/02 12:18:02;;;;;;;13.07;4.85;;;16.70;91.90;;;;;;5071074;28;20032;-52
2023/01/02 12:20:58;;;;;;;13.52;4.10;;;16.70;91.80;;;;;;5071043;28;20040;-50
2023/01/02 12:24:05;;;;;;;12.50;4.18;;;16.60;91.90;;;;;;5071415;28;20027;-53
2023/01/02 12:27:15;;;;;;;9.57;3.70;;;16.70;92.00;;;;;;5070836;28;20033;-49
2023/01/02 12:30:12;;;;;;;14.50;5.50;;;16.70;92.10;;;;;;5070651;28;20020;-51
2023/01/02 12:33:17;;;;;;;12.07;4.47;;;16.70;92.30;;;;;;5072638;28;20033;-51
2023/01/02 12:36:39;;;;;;;13.25;3.67;;;16.70;92.10;;;;;;5055849;28;20107;-48
2023/01/02 12:39:48;;;;;;;6.53;3.50;;;16.60;92.20;;;;;;5070439;28;20567;-48
2023/01/02 12:43:00;;;;;;;9.38;4.60;;;16.70;91.90;;;;;;5070743;28;20021;-56
2023/01/02 12:46:05;;;;;;;9.63;4.20;;;16.60;91.70;;;;;;5050687;28;20032;-50
2023/01/02 12:48:51;;;;;;;11.80;4.25;;;16.60;91.90;;;;;;5071218;28;20468;-55
2023/01/02 12:51:42;;;;;;;11.55;4.53;;;16.50;91.90;;;;;;5071292;28;20052;-59
2023/01/02 12:54:47;;;;;;;10.82;4.30;;;16.60;91.80;;;;;;5071471;28;20025;-58
2023/01/02 12:57:54;;;;;;;15.25;4.05;;;16.60;91.80;;;;;;5071132;28;20025;-58
2023/01/02 13:00:51;;;;;;;7.65;4.25;;;16.60;91.70;;;;;;5070838;28;20035;-58
2023/01/02 13:04:11;;;;;;;14.18;4.68;;;16.60;91.60;;;;;;5071459;28;20036;-58
2023/01/02 13:07:14;;;;;;;10.23;4.43;;;16.60;91.60;;;;;;5071839;28;20017;-50
2023/01/02 13:10:03;;;;;;;10.25;4.13;;;16.60;91.70;;;;;;5072719;28;20024;-51
2023/01/02 13:12:50;;;;;;;12.38;4.70;;;16.50;91.90;;;;;;5074290;28;20028;-53
2023/01/02 13:15:41;;;;;;;11.30;4.50;;;16.50;91.90;;;;;;5074553;28;20399;-52
2023/01/02 13:18:35;;;;;;;13.23;4.72;;;16.40;92.00;;;;;;5074938;28;20020;-50
2023/01/02 13:21:31;;;;;;;11.05;4.03;;;16.30;92.30;;;;;;5075086;28;20032;-50
2023/01/02 13:24:20;;;;;;;;;;;16.20;92.40;;;;;;5074782;28;20021;-47
2023/01/02 13:27:10;;;;;;;12.80;4.85;;;16.10;92.90;;;;;;5074922;28;20359;-48
2023/01/02 13:29:56;;;;;;;12.68;5.10;;;16.00;93.30;;;;;;5075588;28;20016;-47
2023/01/02 13:32:41;;;;;;;10.93;4.40;;;16.00;93.40;;;;;;5075058;28;20029;-49
2023/01/02 13:35:32;;;;;;;17.88;5.55;;;16.00;93.50;;;;;;5075352;28;20546;-54
2023/01/02 13:38:19;;;;;;;11.70;3.97;;;16.00;93.70;;;;;;5073927;28;20044;-53
2023/01/02 13:41:05;;;;;;;11.45;4.72;;;16.00;93.80;;;;;;5073978;28;20032;-51
2023/01/02 13:43:58;;;;;;;10.38;4.78;;;15.80;94.00;;;;;;5067434;28;20111;-49
2023/01/02 13:46:44;;;;;;;11.43;4.85;;;15.90;94.30;;;;;;5074851;28;20504;-52
2023/01/02 13:49:32;;;;;;;11.57;4.38;;;15.70;94.50;;;;;;5074082;28;20036;-48
2023/01/02 13:52:20;;;;;;;14.25;4.80;;;15.70;94.80;;;;;;5046390;28;20033;-49
2023/01/02 13:55:23;;;;;;;11.90;4.60;;;15.60;95.00;;;;;;5074717;28;20033;-58
2023/01/02 13:58:16;;;;;;;11.27;4.60;;;15.50;95.40;;;;;;5076007;28;20021;-53
2023/01/02 14:01:22;;;;;;;12.52;4.80;;;15.40;95.60;;;;;;5074541;28;20092;-51
2023/01/02 14:04:18;;;;;;;10.25;4.07;;;15.40;95.80;;;;;;5074703;28;20024;-53
2023/01/02 14:07:23;;;;;;;11.55;4.40;;;15.40;95.90;;;;;;5059393;28;20025;-50
2023/01/02 14:10:09;;;;;;;10.37;4.50;;;15.30;96.10;;;;;;5074038;28;20365;-51
2023/01/02 14:13:06;;;;;;;12.90;4.30;;;15.30;96.20;;;;;;5074351;28;20016;-50
2023/01/02 14:16:23;;;;;;;12.73;4.20;;;15.20;96.40;;;;;;5074082;28;20031;-54
2023/01/02 14:19:12;;;;;;;11.30;4.22;;;15.10;96.70;;;;;;5073342;28;20073;-52
2023/01/02 14:21:58;;;;;;;9.52;3.97;;;15.10;96.90;;;;;;5073663;28;20032;-54
2023/01/02 14:24:52;;;;;;;12.73;4.70;;;15.20;96.80;;;;;;5072450;28;20024;-54
2023/01/02 14:27:38;;;;;;;10.05;4.50;;;15.10;97.10;;;;;;5073527;28;20017;-56
2023/01/02 14:30:44;;;;;;;12.38;5.03;;;15.10;97.10;;;;;;5073566;28;20551;-52
2023/01/02 14:33:33;;;;;;;10.45;4.15;;;15.10;97.10;;;;;;5073328;28;20329;-53
2023/01/02 14:36:22;;;;;;;9.38;4.22;;;15.10;97.10;;;;;;5073397;28;20468;-50
2023/01/02 14:39:18;;;;;;;8.90;4.05;;;15.00;97.30;;;;;;5074002;28;20120;-51
2023/01/02 14:45:27;;;;;;;6.20;3.38;;;14.90;97.30;;;;;;5075845;28;20025;-55
2023/01/02 14:48:17;;;;;;;11.73;3.95;;;14.80;97.30;;;;;;5073401;28;20035;-52
2023/01/02 14:51:11;;;;;;;11.25;4.10;;;14.80;97.40;;;;;;5074882;28;20548;-49
2023/01/02 14:54:01;;;;;;;13.63;4.03;;;14.80;97.50;;;;;;5072920;28;20396;-49
2023/01/02 14:56:53;;;;;;;9.80;4.35;;;14.70;97.70;;;;;;5072391;28;20505;-49
2023/01/02 14:59:46;;;;;;;11.13;4.72;;;14.70;97.70;;;;;;5073046;28;20037;-52